Time;durP1;ratioP1;P1;durP2;ratioP2;P2;SDS_P1;SDS_P2;PMS_P1;PMS_P2;Temp;Humidity;BMP_temperature;BMP_pressure;BME280_temperature;BME280_humidity;BME280_pressure;Samples;Min_cycle;Max_cycle;Signal;HPM_P1;HPM_P2
2022/07/18 00:01:51;;;;;;;4.15;3.13;;;18.40;99.90;;;;;;4994837;28;20065;-80
2022/07/18 00:04:17;;;;;;;4.03;2.88;;;18.40;99.90;;;;;;5010980;28;20064;-81
2022/07/18 00:06:42;;;;;;;4.38;2.75;;;18.30;99.90;;;;;;4993809;28;20041;-82
2022/07/18 00:09:08;;;;;;;3.80;2.60;;;18.20;99.90;;;;;;4994489;28;20038;-81
2022/07/18 00:11:34;;;;;;;4.28;2.85;;;18.10;99.90;;;;;;5010088;28;20042;-81
2022/07/18 00:14:00;;;;;;;4.95;2.50;;;18.10;99.90;;;;;;5010527;28;20034;-81
2022/07/18 00:16:25;;;;;;;3.60;2.17;;;18.10;99.90;;;;;;5009693;28;20041;-80
2022/07/18 00:18:51;;;;;;;3.40;2.67;;;18.00;99.90;;;;;;5010279;28;20037;-80
2022/07/18 00:21:17;;;;;;;4.13;2.40;;;18.00;99.90;;;;;;5010381;28;20037;-81
2022/07/18 00:23:43;;;;;;;5.05;2.83;;;18.10;99.90;;;;;;5010304;28;20065;-82
2022/07/18 00:26:09;;;;;;;5.53;3.10;;;18.10;99.90;;;;;;5010336;28;20053;-82
2022/07/18 00:28:34;;;;;;;5.65;3.55;;;18.10;99.90;;;;;;5009542;28;20052;-81
2022/07/18 00:31:00;;;;;;;4.78;3.60;;;18.10;99.90;;;;;;5010367;28;20037;-81
2022/07/18 00:33:26;;;;;;;5.78;3.72;;;18.20;99.90;;;;;;5008775;28;20085;-81
2022/07/18 00:35:51;;;;;;;7.40;3.45;;;18.20;99.90;;;;;;5009390;28;20064;-80
2022/07/18 00:38:17;;;;;;;6.57;3.15;;;18.20;99.90;;;;;;5008795;28;20057;-80
2022/07/18 00:40:43;;;;;;;5.32;3.42;;;18.30;99.90;;;;;;5008228;28;20052;-81
2022/07/18 00:43:11;;;;;;;5.13;3.42;;;18.30;99.90;;;;;;5009353;28;20049;-81
2022/07/18 00:45:37;;;;;;;5.57;3.30;;;18.30;99.90;;;;;;5010144;28;20077;-81
2022/07/18 00:48:07;;;;;;;5.80;3.45;;;18.30;99.90;;;;;;5010458;28;20081;-81
2022/07/18 00:50:33;;;;;;;5.93;3.60;;;18.30;99.90;;;;;;5029787;28;20572;-81
2022/07/18 00:52:58;;;;;;;4.90;3.30;;;18.30;99.90;;;;;;5013035;28;20121;-81
2022/07/18 00:55:24;;;;;;;4.60;3.40;;;18.30;99.90;;;;;;5013085;28;20065;-81
2022/07/18 00:57:51;;;;;;;6.28;3.42;;;18.30;99.90;;;;;;4996987;28;20048;-81
2022/07/18 01:03:01;;;;;;;5.25;3.40;;;18.30;99.90;;;;;;5016100;28;20056;-81
2022/07/18 01:05:27;;;;;;;5.15;3.60;;;18.20;99.90;;;;;;5012670;28;20041;-81
2022/07/18 01:07:53;;;;;;;6.22;3.90;;;18.20;99.90;;;;;;5013091;28;20118;-81
2022/07/18 01:10:19;;;;;;;5.75;3.65;;;18.10;99.90;;;;;;4980923;28;20037;-80
2022/07/18 01:12:45;;;;;;;5.55;3.58;;;18.10;99.90;;;;;;4996568;28;20042;-81
2022/07/18 01:15:11;;;;;;;5.78;3.63;;;18.10;99.90;;;;;;5013234;28;20073;-82
2022/07/18 01:17:38;;;;;;;5.43;3.70;;;18.10;99.90;;;;;;4996231;28;20045;-82
2022/07/18 01:20:05;;;;;;;6.55;3.88;;;18.00;99.90;;;;;;5013223;28;20029;-81
2022/07/18 01:22:32;;;;;;;5.65;4.10;;;18.00;99.90;;;;;;5013021;28;20456;-81
2022/07/18 01:24:58;;;;;;;5.95;4.18;;;18.10;99.90;;;;;;4996901;28;20045;-81
2022/07/18 01:27:24;;;;;;;6.20;3.88;;;18.10;99.90;;;;;;5013027;28;20037;-81
2022/07/18 01:29:52;;;;;;;5.20;3.58;;;18.10;99.90;;;;;;5013169;28;20497;-80
2022/07/18 01:32:19;;;;;;;6.88;3.75;;;18.00;99.90;;;;;;5011030;28;20088;-81
2022/07/18 01:34:46;;;;;;;5.97;4.38;;;18.00;99.90;;;;;;5012737;28;20041;-81
2022/07/18 01:37:13;;;;;;;6.68;3.88;;;18.00;99.90;;;;;;4997048;28;20567;-81
2022/07/18 01:39:38;;;;;;;6.20;4.00;;;18.00;99.90;;;;;;5012895;28;20107;-81
2022/07/18 01:42:06;;;;;;;6.25;3.90;;;18.00;99.90;;;;;;5013606;28;20049;-81
2022/07/18 01:44:32;;;;;;;7.50;3.97;;;17.90;99.90;;;;;;5012702;28;20049;-81
2022/07/18 01:46:58;;;;;;;8.18;4.43;;;17.90;99.90;;;;;;5013148;28;20088;-79
2022/07/18 01:49:25;;;;;;;7.90;3.97;;;17.90;99.90;;;;;;5012890;28;20076;-81
2022/07/18 01:51:53;;;;;;;7.53;4.88;;;17.80;99.90;;;;;;4999437;28;20037;-81
2022/07/18 01:54:27;;;;;;;8.98;4.60;;;17.80;99.90;;;;;;5016890;28;20098;-82
2022/07/18 01:56:53;;;;;;;6.90;4.50;;;17.80;99.90;;;;;;5016231;28;20041;-82
2022/07/18 01:59:19;;;;;;;7.68;4.60;;;17.80;99.90;;;;;;5037335;28;20133;-81
2022/07/18 02:01:45;;;;;;;8.27;4.70;;;17.80;99.90;;;;;;4999484;28;20033;-81
2022/07/18 02:04:11;;;;;;;6.22;4.25;;;17.80;99.90;;;;;;5000364;28;20037;-82
2022/07/18 02:06:37;;;;;;;6.85;4.75;;;17.80;99.90;;;;;;5015701;28;20041;-81
2022/07/18 02:09:04;;;;;;;7.93;5.00;;;17.70;99.90;;;;;;5016372;28;20040;-80
2022/07/18 02:11:30;;;;;;;6.43;4.75;;;17.60;99.90;;;;;;5015957;28;20041;-81
2022/07/18 02:13:56;;;;;;;6.80;4.20;;;17.60;99.90;;;;;;4999749;28;20042;-81
2022/07/18 02:16:21;;;;;;;5.50;4.20;;;17.60;99.90;;;;;;5015984;28;20108;-80
2022/07/18 02:18:47;;;;;;;6.28;4.43;;;17.50;99.90;;;;;;5016091;28;20120;-81
2022/07/18 02:21:15;;;;;;;7.25;4.32;;;17.50;99.90;;;;;;5016438;28;20045;-81
2022/07/18 02:23:42;;;;;;;6.15;4.50;;;17.50;99.90;;;;;;5015354;28;20065;-81
2022/07/18 02:26:09;;;;;;;6.60;4.50;;;17.40;99.90;;;;;;5016260;28;20405;-81
2022/07/18 02:28:35;;;;;;;6.13;4.50;;;17.40;99.90;;;;;;5015443;28;20120;-81
2022/07/18 02:31:01;;;;;;;7.82;4.70;;;17.30;99.90;;;;;;5015471;28;20091;-81
2022/07/18 02:33:26;;;;;;;6.55;4.32;;;17.20;99.90;;;;;;5015198;28;20077;-80
2022/07/18 02:35:52;;;;;;;6.38;4.53;;;17.20;99.90;;;;;;5015579;28;20073;-80
2022/07/18 02:38:18;;;;;;;7.57;4.43;;;17.20;99.90;;;;;;5033547;28;20044;-81
2022/07/18 02:40:44;;;;;;;9.18;4.72;;;17.20;99.90;;;;;;5031278;28;20387;-81
2022/07/18 02:43:10;;;;;;;6.57;4.22;;;17.20;99.90;;;;;;5015440;28;20045;-81
2022/07/18 02:45:35;;;;;;;8.48;4.78;;;17.20;99.90;;;;;;5015152;28;20045;-80
2022/07/18 02:48:01;;;;;;;7.10;4.70;;;17.20;99.90;;;;;;4998688;28;20053;-81
2022/07/18 02:50:27;;;;;;;7.60;4.50;;;17.30;99.90;;;;;;5019748;28;20112;-81
2022/07/18 02:52:53;;;;;;;7.80;4.63;;;17.30;99.90;;;;;;5017219;28;20044;-81
2022/07/18 02:55:20;;;;;;;6.57;4.25;;;17.30;99.90;;;;;;4990135;28;20201;-81
2022/07/18 02:57:46;;;;;;;7.07;4.53;;;17.30;99.90;;;;;;5010255;28;20498;-80
2022/07/18 03:00:14;;;;;;;7.35;4.43;;;17.30;99.90;;;;;;5015016;28;20041;-81
2022/07/18 03:02:40;;;;;;;6.88;4.60;;;17.30;99.90;;;;;;5013453;28;20072;-82
2022/07/18 03:05:06;;;;;;;;;;;17.40;99.90;;;;;;5031982;28;20047;-81
2022/07/18 03:07:32;;;;;;;7.32;4.72;;;17.30;99.90;;;;;;5031399;28;20289;-81
2022/07/18 03:09:58;;;;;;;8.40;4.78;;;17.30;99.90;;;;;;5014643;28;20113;-82
2022/07/18 03:12:24;;;;;;;9.30;5.18;;;17.30;99.90;;;;;;5014627;28;20509;-81
2022/07/18 03:14:50;;;;;;;6.60;4.65;;;17.30;99.90;;;;;;4998229;28;20029;-81
2022/07/18 03:17:16;;;;;;;7.45;4.90;;;17.30;99.90;;;;;;5014667;28;20076;-81
2022/07/18 03:19:42;;;;;;;9.13;4.90;;;17.30;99.90;;;;;;4998273;28;20061;-82
2022/07/18 03:22:07;;;;;;;6.40;4.47;;;17.20;99.90;;;;;;4998394;28;20503;-81
2022/07/18 03:24:33;;;;;;;10.05;4.63;;;17.20;99.90;;;;;;5014615;28;20148;-81
2022/07/18 03:26:59;;;;;;;7.15;4.45;;;17.20;99.90;;;;;;5014596;28;20061;-81
2022/07/18 03:29:26;;;;;;;6.97;4.88;;;17.20;99.90;;;;;;4997762;28;20052;-81
2022/07/18 03:31:52;;;;;;;7.72;4.63;;;17.20;99.90;;;;;;5013728;28;20037;-81
2022/07/18 03:34:18;;;;;;;7.00;4.88;;;17.20;99.90;;;;;;5014633;28;20033;-81
2022/07/18 03:36:44;;;;;;;7.72;4.47;;;17.20;99.90;;;;;;5014291;28;20042;-80
2022/07/18 03:39:10;;;;;;;6.28;4.53;;;17.20;99.90;;;;;;5014927;28;20034;-82
2022/07/18 03:41:37;;;;;;;8.18;4.40;;;17.20;99.90;;;;;;5013784;28;20042;-81
2022/07/18 03:44:03;;;;;;;;;;;17.20;99.90;;;;;;5013659;28;20060;-80
2022/07/18 03:46:30;;;;;;;6.50;4.10;;;17.10;99.90;;;;;;5013072;28;20124;-80
2022/07/18 03:48:55;;;;;;;7.65;5.10;;;17.20;99.90;;;;;;5013236;28;20056;-81
2022/07/18 03:51:21;;;;;;;7.75;5.10;;;17.20;99.90;;;;;;5029494;28;20136;-81
2022/07/18 03:53:47;;;;;;;7.75;4.70;;;17.20;99.90;;;;;;5012714;28;20072;-80
2022/07/18 03:56:13;;;;;;;12.98;5.22;;;17.10;99.90;;;;;;5014538;28;20068;-81
2022/07/18 03:58:38;;;;;;;6.88;4.63;;;17.10;99.90;;;;;;4997578;28;20603;-81
2022/07/18 04:01:04;;;;;;;7.47;4.72;;;17.10;99.90;;;;;;4997493;28;20029;-82
2022/07/18 04:03:30;;;;;;;6.97;4.63;;;17.10;99.90;;;;;;4981246;28;20115;-81
2022/07/18 04:05:56;;;;;;;8.07;4.93;;;17.00;99.90;;;;;;5013495;28;20044;-82
2022/07/18 04:08:21;;;;;;;7.57;4.45;;;17.00;99.90;;;;;;5013857;28;20124;-81
2022/07/18 04:10:47;;;;;;;6.60;4.70;;;17.00;99.90;;;;;;4992525;28;20041;-79
2022/07/18 04:13:13;;;;;;;7.60;4.32;;;17.00;99.90;;;;;;5013802;28;20041;-80
2022/07/18 04:15:39;;;;;;;9.32;4.60;;;17.00;99.90;;;;;;5014060;28;20520;-79
2022/07/18 04:18:06;;;;;;;8.63;4.35;;;17.00;99.90;;;;;;5013911;28;20061;-80
2022/07/18 04:20:33;;;;;;;7.93;4.82;;;17.00;99.90;;;;;;5014019;28;20401;-80
2022/07/18 04:23:05;;;;;;;8.27;4.57;;;17.00;99.90;;;;;;5013945;28;20489;-81
2022/07/18 04:25:37;;;;;;;7.20;4.40;;;17.00;99.90;;;;;;5013659;28;20041;-81
2022/07/18 04:28:03;;;;;;;7.80;4.40;;;17.10;99.90;;;;;;5011381;28;20096;-80
2022/07/18 04:30:29;;;;;;;8.80;4.60;;;17.10;99.90;;;;;;5013438;28;20044;-80
2022/07/18 04:32:55;;;;;;;6.95;4.55;;;17.10;99.90;;;;;;4996822;28;20046;-80
2022/07/18 04:35:23;;;;;;;7.20;4.03;;;17.10;99.90;;;;;;5013249;28;20045;-79
2022/07/18 04:37:49;;;;;;;5.60;3.72;;;17.10;99.90;;;;;;4996625;28;20092;-79
2022/07/18 04:40:15;;;;;;;6.93;4.20;;;17.20;99.90;;;;;;5013586;28;20474;-80
2022/07/18 04:42:41;;;;;;;5.13;3.42;;;17.20;99.90;;;;;;5012936;28;20041;-80
2022/07/18 04:45:07;;;;;;;7.03;4.35;;;17.30;99.90;;;;;;4996500;28;20049;-78
2022/07/18 04:47:33;;;;;;;;;;;17.30;99.90;;;;;;4997074;28;20084;-79
2022/07/18 04:49:59;;;;;;;5.82;3.35;;;17.40;99.90;;;;;;5013304;28;19952;-80
2022/07/18 04:52:25;;;;;;;6.47;4.10;;;17.40;99.90;;;;;;5013027;28;20053;-81
2022/07/18 04:54:50;;;;;;;7.95;3.88;;;17.50;99.90;;;;;;5014339;28;20045;-80
2022/07/18 04:57:16;;;;;;;6.78;3.85;;;17.60;99.90;;;;;;4997721;28;20374;-80
2022/07/18 04:59:43;;;;;;;5.88;3.42;;;17.70;99.90;;;;;;4997227;28;20516;-81
2022/07/18 05:02:09;;;;;;;4.85;3.20;;;17.70;99.90;;;;;;5013500;28;20122;-81
2022/07/18 05:04:36;;;;;;;6.35;3.70;;;17.70;99.90;;;;;;5013226;28;20081;-81
2022/07/18 05:07:01;;;;;;;6.15;3.40;;;17.80;99.90;;;;;;4996409;28;20049;-81
2022/07/18 05:09:28;;;;;;;5.50;3.33;;;17.90;99.90;;;;;;5013239;28;20030;-81
2022/07/18 05:11:54;;;;;;;5.90;3.28;;;17.80;99.90;;;;;;5013383;28;20033;-81
2022/07/18 05:14:20;;;;;;;5.32;3.08;;;17.90;99.90;;;;;;4997500;28;20049;-81
2022/07/18 05:16:46;;;;;;;;;;;17.80;99.90;;;;;;5002875;28;20042;-81
2022/07/18 05:19:12;;;;;;;6.68;3.17;;;17.90;99.90;;;;;;5013721;28;19971;-81
2022/07/18 05:21:38;;;;;;;5.93;3.33;;;17.90;99.90;;;;;;4996783;28;20124;-81
2022/07/18 05:24:04;;;;;;;6.10;3.35;;;17.90;99.90;;;;;;4981219;28;20504;-81
2022/07/18 05:26:29;;;;;;;5.80;2.90;;;17.90;99.90;;;;;;4999662;28;20135;-80
2022/07/18 05:28:55;;;;;;;5.63;2.80;;;18.00;99.90;;;;;;5000817;28;20064;-80
2022/07/18 05:31:21;;;;;;;5.65;3.10;;;18.10;99.90;;;;;;5017323;28;20037;-80
2022/07/18 05:33:47;;;;;;;4.43;2.83;;;18.20;99.90;;;;;;5017076;28;20037;-81
2022/07/18 05:36:12;;;;;;;5.65;3.38;;;18.20;99.90;;;;;;5005555;28;20037;-81
2022/07/18 05:38:38;;;;;;;6.88;3.10;;;18.20;99.90;;;;;;5001153;28;20112;-81
2022/07/18 05:41:04;;;;;;;5.80;3.00;;;18.20;99.90;;;;;;5000466;28;20045;-81
2022/07/18 05:43:29;;;;;;;7.13;3.53;;;18.20;99.90;;;;;;5005900;28;20048;-81
2022/07/18 05:45:55;;;;;;;6.15;3.35;;;18.20;99.90;;;;;;5016285;28;20045;-82
2022/07/18 05:48:20;;;;;;;4.95;2.75;;;18.20;99.90;;;;;;5015587;28;20050;-81
2022/07/18 05:50:46;;;;;;;8.63;3.10;;;18.30;99.90;;;;;;5010484;28;20049;-81
2022/07/18 05:53:12;;;;;;;5.32;2.80;;;18.30;99.90;;;;;;5016617;28;20076;-81
2022/07/18 05:55:38;;;;;;;4.25;2.85;;;18.30;99.90;;;;;;5016320;28;20044;-81
2022/07/18 05:58:03;;;;;;;4.72;2.58;;;18.40;99.90;;;;;;5000258;28;20116;-81
2022/07/18 06:00:30;;;;;;;4.97;2.42;;;18.40;99.90;;;;;;5016568;28;20034;-81
2022/07/18 06:02:56;;;;;;;;;;;18.50;99.90;;;;;;5022163;28;20048;-82
2022/07/18 06:05:22;;;;;;;4.72;2.70;;;18.50;99.90;;;;;;5021969;28;19917;-80
2022/07/18 06:07:48;;;;;;;4.95;2.70;;;18.60;99.90;;;;;;5016469;28;20041;-82
2022/07/18 06:10:13;;;;;;;5.68;2.75;;;18.60;99.90;;;;;;5016468;28;20512;-81
2022/07/18 06:12:39;;;;;;;5.45;2.72;;;18.70;99.90;;;;;;5016319;28;20044;-81
2022/07/18 06:15:07;;;;;;;5.93;2.58;;;18.90;99.90;;;;;;4999990;28;20029;-81
2022/07/18 06:17:33;;;;;;;6.32;2.85;;;19.00;99.90;;;;;;4999173;28;20098;-81
2022/07/18 06:19:59;;;;;;;7.03;3.20;;;19.10;99.90;;;;;;5023144;28;20044;-81
2022/07/18 06:22:25;;;;;;;5.07;2.90;;;19.20;99.90;;;;;;5020903;28;20049;-81
2022/07/18 06:24:51;;;;;;;;;;;19.30;99.90;;;;;;5000475;28;20042;-81
2022/07/18 06:27:17;;;;;;;6.22;3.08;;;19.50;99.90;;;;;;5016548;28;20380;-81
2022/07/18 06:29:43;;;;;;;5.05;2.63;;;19.60;99.90;;;;;;5016234;28;20141;-80
2022/07/18 06:32:09;;;;;;;3.15;2.10;;;19.80;99.90;;;;;;5015824;28;20076;-81
2022/07/18 06:34:34;;;;;;;4.32;2.08;;;20.00;99.90;;;;;;5020376;28;20030;-81
2022/07/18 06:37:00;;;;;;;5.57;2.22;;;20.20;99.90;;;;;;5021203;28;20040;-81
2022/07/18 06:39:26;;;;;;;6.50;2.47;;;20.40;99.90;;;;;;5015836;28;20124;-81
2022/07/18 06:41:51;;;;;;;4.20;2.33;;;20.60;99.90;;;;;;5000517;28;20104;-81
2022/07/18 06:44:17;;;;;;;5.88;2.45;;;20.60;99.90;;;;;;5015798;28;20071;-80
2022/07/18 06:46:43;;;;;;;6.25;2.92;;;20.60;99.90;;;;;;5003226;28;20054;-80
2022/07/18 06:49:09;;;;;;;4.10;2.20;;;20.60;99.90;;;;;;4998727;28;20434;-80
2022/07/18 06:51:35;;;;;;;7.55;2.15;;;20.80;99.90;;;;;;4983361;28;20046;-80
2022/07/18 06:54:01;;;;;;;3.85;1.88;;;20.80;99.90;;;;;;4992850;28;20502;-81
2022/07/18 06:56:26;;;;;;;4.05;2.00;;;20.80;99.90;;;;;;4992727;28;20049;-81
2022/07/18 06:58:52;;;;;;;7.05;2.22;;;21.20;99.90;;;;;;4994952;28;20034;-81
2022/07/18 07:01:19;;;;;;;;;;;21.70;99.90;;;;;;4995073;28;20046;-81
2022/07/18 07:03:46;;;;;;;5.45;1.98;;;22.00;99.90;;;;;;4991890;28;19928;-81
2022/07/18 07:06:13;;;;;;;3.97;1.70;;;22.40;99.90;;;;;;4992095;28;20038;-81
2022/07/18 07:08:38;;;;;;;4.30;1.77;;;22.70;99.90;;;;;;5001023;28;20038;-81
2022/07/18 07:11:04;;;;;;;5.30;2.10;;;22.90;99.90;;;;;;4980726;28;20119;-81
2022/07/18 07:13:30;;;;;;;5.13;2.00;;;22.70;99.90;;;;;;4981093;28;20718;-80
2022/07/18 07:15:55;;;;;;;4.22;2.03;;;22.80;99.90;;;;;;4981702;28;20498;-81
2022/07/18 07:18:21;;;;;;;5.88;2.08;;;22.90;99.90;;;;;;4991214;28;20050;-81
2022/07/18 07:20:47;;;;;;;3.63;1.75;;;23.00;99.90;;;;;;4992080;28;20030;-81
2022/07/18 07:23:13;;;;;;;;;;;23.10;99.90;;;;;;4960097;28;20049;-81
2022/07/18 07:25:39;;;;;;;2.50;1.63;;;23.10;99.90;;;;;;4999083;28;19917;-81
2022/07/18 07:28:05;;;;;;;;;;;23.30;99.90;;;;;;5002146;28;20567;-81
2022/07/18 07:30:32;;;;;;;3.03;1.70;;;23.30;99.90;;;;;;4993412;28;20009;-80
2022/07/18 07:32:58;;;;;;;3.95;1.50;;;23.40;99.90;;;;;;4991836;28;20485;-80
2022/07/18 07:35:23;;;;;;;;;;;23.60;99.90;;;;;;4993137;28;20141;-81
2022/07/18 07:37:55;;;;;;;5.88;1.30;;;24.10;99.90;;;;;;4975990;28;20425;-81
2022/07/18 07:40:24;;;;;;;4.28;1.40;;;24.20;98.80;;;;;;4990405;28;20057;-80
2022/07/18 07:42:50;;;;;;;3.45;1.30;;;24.50;99.90;;;;;;4991842;28;20034;-81
2022/07/18 07:45:16;;;;;;;2.42;1.20;;;24.80;99.90;;;;;;4975737;28;20046;-80
2022/07/18 07:47:43;;;;;;;4.47;1.25;;;25.30;99.90;;;;;;4991106;28;20057;-81
2022/07/18 07:50:10;;;;;;;4.15;1.27;;;25.50;99.10;;;;;;5009959;28;20068;-80
2022/07/18 07:52:37;;;;;;;5.28;1.45;;;25.80;98.80;;;;;;4993523;28;20121;-81
2022/07/18 07:55:04;;;;;;;5.38;1.35;;;25.90;98.60;;;;;;4994059;28;20034;-81
2022/07/18 07:57:29;;;;;;;2.42;1.20;;;26.30;96.90;;;;;;4977332;28;20037;-81
2022/07/18 07:59:55;;;;;;;5.50;1.35;;;26.00;97.30;;;;;;4980381;28;20057;-81
2022/07/18 08:02:21;;;;;;;4.75;1.40;;;25.90;96.90;;;;;;4997008;28;20176;-81
2022/07/18 08:04:46;;;;;;;4.78;1.52;;;26.10;97.40;;;;;;4993731;28;20567;-81
2022/07/18 08:07:12;;;;;;;3.80;1.20;;;26.20;97.40;;;;;;5010121;28;20045;-81
2022/07/18 08:09:38;;;;;;;3.80;1.52;;;26.40;96.60;;;;;;5010205;28;20037;-83
2022/07/18 08:12:04;;;;;;;5.45;1.30;;;26.50;96.50;;;;;;4993405;28;20052;-81
2022/07/18 08:14:33;;;;;;;5.80;1.50;;;26.80;95.80;;;;;;5009868;28;20045;-81
2022/07/18 08:16:59;;;;;;;3.83;1.13;;;26.90;95.80;;;;;;4995475;28;20038;-82
2022/07/18 08:19:25;;;;;;;4.55;1.50;;;26.80;96.50;;;;;;5016215;28;20409;-81
2022/07/18 08:21:50;;;;;;;2.72;1.33;;;26.80;96.60;;;;;;4994658;28;20038;-81
2022/07/18 08:24:16;;;;;;;2.10;1.05;;;27.00;96.70;;;;;;4993635;28;20390;-82
2022/07/18 08:26:42;;;;;;;3.90;1.30;;;27.30;96.80;;;;;;5009724;28;20064;-82
2022/07/18 08:29:08;;;;;;;3.72;1.60;;;27.60;96.10;;;;;;4993443;28;20034;-80
2022/07/18 08:31:34;;;;;;;3.50;1.35;;;27.80;95.30;;;;;;5009847;28;20044;-82
2022/07/18 08:33:59;;;;;;;3.47;1.35;;;28.00;94.90;;;;;;5009643;28;20033;-81
2022/07/18 08:36:26;;;;;;;3.53;1.05;;;28.40;94.00;;;;;;5009295;28;20034;-80
2022/07/18 08:38:52;;;;;;;2.55;1.00;;;28.70;93.70;;;;;;4997725;28;20050;-81
2022/07/18 08:41:18;;;;;;;3.40;1.23;;;28.70;93.30;;;;;;5009355;28;20045;-80
2022/07/18 08:43:47;;;;;;;4.85;1.10;;;28.60;93.70;;;;;;5009614;28;20034;-80
2022/07/18 08:46:14;;;;;;;4.03;1.23;;;28.40;93.90;;;;;;4958294;28;1097658;-81
2022/07/18 08:48:41;;;;;;;3.30;1.27;;;28.30;94.00;;;;;;5013507;28;20045;-80
2022/07/18 08:51:07;;;;;;;2.33;1.05;;;28.20;94.30;;;;;;4997814;28;20121;-80
2022/07/18 08:53:37;;;;;;;2.75;1.05;;;28.00;93.40;;;;;;4981072;28;20128;-81
2022/07/18 08:56:03;;;;;;;2.97;1.20;;;27.90;93.70;;;;;;4987886;28;20044;-80
2022/07/18 08:58:29;;;;;;;3.75;1.08;;;27.90;94.00;;;;;;5013782;28;20050;-80
2022/07/18 09:00:54;;;;;;;3.78;1.15;;;27.80;93.20;;;;;;4999074;28;20041;-81
2022/07/18 09:03:20;;;;;;;4.97;1.20;;;27.70;93.20;;;;;;5001371;28;20061;-81
2022/07/18 09:05:46;;;;;;;4.38;1.15;;;27.40;94.20;;;;;;5001240;28;20037;-81
2022/07/18 09:08:17;;;;;;;2.75;1.08;;;27.30;94.10;;;;;;5021292;28;20060;-80
2022/07/18 09:10:57;;;;;;;6.50;1.30;;;27.10;94.50;;;;;;5002483;28;20064;-81
2022/07/18 09:13:25;;;;;;;4.80;1.20;;;27.20;94.90;;;;;;5016077;28;20119;-80
2022/07/18 09:16:11;;;;;;;3.10;1.08;;;27.10;94.70;;;;;;5015768;28;20045;-80
2022/07/18 09:18:43;;;;;;;2.83;1.00;;;27.30;94.90;;;;;;5015827;28;20042;-82
2022/07/18 09:21:18;;;;;;;4.80;1.58;;;27.50;94.80;;;;;;5019715;28;20057;-81
2022/07/18 09:23:50;;;;;;;3.33;1.33;;;27.70;95.10;;;;;;5015588;28;20067;-81
2022/07/18 09:26:39;;;;;;;3.10;0.82;;;27.80;94.80;;;;;;5015532;28;20129;-81
2022/07/18 09:29:05;;;;;;;4.60;1.10;;;27.90;94.00;;;;;;5015778;28;20045;-81
2022/07/18 09:31:30;;;;;;;3.75;1.02;;;28.40;93.50;;;;;;5003349;28;20042;-81
2022/07/18 09:34:03;;;;;;;4.30;1.30;;;28.70;93.00;;;;;;5015331;28;20126;-80
2022/07/18 09:36:30;;;;;;;3.78;1.20;;;29.00;93.00;;;;;;5015662;28;20425;-81
2022/07/18 09:38:55;;;;;;;2.22;0.88;;;29.40;92.10;;;;;;5015472;28;20055;-80
2022/07/18 09:41:27;;;;;;;4.22;0.80;;;29.70;92.20;;;;;;5015266;28;20116;-81
2022/07/18 09:43:53;;;;;;;3.15;0.75;;;29.80;91.90;;;;;;5015972;28;20054;-81
2022/07/18 09:46:19;;;;;;;2.78;0.90;;;29.80;92.20;;;;;;5035129;28;20083;-80
2022/07/18 09:48:45;;;;;;;3.45;0.80;;;29.80;91.70;;;;;;5015532;28;20056;-81
2022/07/18 09:51:11;;;;;;;3.28;1.13;;;30.00;91.70;;;;;;5015392;28;20042;-81
2022/07/18 09:53:41;;;;;;;3.72;0.88;;;29.90;91.50;;;;;;5015192;28;20049;-81
2022/07/18 09:56:12;;;;;;;4.18;1.00;;;29.90;92.20;;;;;;5031331;28;20034;-80
2022/07/18 09:58:50;;;;;;;4.32;1.05;;;30.10;91.50;;;;;;5019147;28;20084;-81
2022/07/18 10:01:16;;;;;;;4.03;1.00;;;30.40;92.30;;;;;;4998820;28;20034;-81
2022/07/18 10:03:42;;;;;;;1.70;0.95;;;30.60;92.00;;;;;;5036989;28;20068;-81
2022/07/18 10:06:10;;;;;;;3.85;1.10;;;30.90;92.20;;;;;;5015417;28;20041;-80
2022/07/18 10:08:36;;;;;;;3.88;1.10;;;31.20;91.00;;;;;;4998747;28;20052;-81
2022/07/18 10:11:04;;;;;;;2.72;1.10;;;31.20;90.40;;;;;;5014880;28;20098;-80
2022/07/18 10:13:31;;;;;;;5.05;1.02;;;31.30;89.80;;;;;;5014546;28;20046;-79
2022/07/18 10:15:57;;;;;;;2.72;1.10;;;31.50;89.00;;;;;;5020659;28;20068;-80
2022/07/18 10:18:26;;;;;;;6.03;1.20;;;31.50;88.60;;;;;;4998679;28;20490;-81
2022/07/18 10:21:11;;;;;;;3.67;1.13;;;31.50;87.40;;;;;;5015051;28;20084;-79
2022/07/18 10:23:43;;;;;;;4.93;1.30;;;31.50;87.70;;;;;;5018950;28;20038;-81
2022/07/18 10:26:13;;;;;;;3.90;1.30;;;31.40;88.80;;;;;;5019812;28;20399;-81
2022/07/18 10:28:59;;;;;;;4.45;1.23;;;31.60;88.30;;;;;;5003848;28;20416;-81
2022/07/18 10:31:27;;;;;;;4.18;1.20;;;31.70;89.00;;;;;;5024636;28;20033;-79
2022/07/18 10:34:09;;;;;;;5.45;1.75;;;31.60;86.70;;;;;;5020092;28;20512;-80
2022/07/18 10:36:39;;;;;;;4.38;1.50;;;32.10;87.70;;;;;;4997995;28;20037;-80
2022/07/18 10:39:25;;;;;;;3.42;1.60;;;32.30;87.60;;;;;;5014613;28;20131;-80
2022/07/18 10:41:54;;;;;;;2.80;1.50;;;32.50;86.30;;;;;;5014196;28;20383;-80
2022/07/18 10:44:29;;;;;;;2.65;1.38;;;32.80;87.40;;;;;;4998144;28;20091;-80
2022/07/18 10:47:04;;;;;;;3.45;1.45;;;32.80;86.00;;;;;;5014230;28;20132;-80
2022/07/18 10:49:57;;;;;;;2.75;1.70;;;32.80;86.80;;;;;;5028607;28;20183;-79
2022/07/18 10:52:29;;;;;;;4.45;2.00;;;32.90;85.60;;;;;;4998040;28;20445;-80
2022/07/18 10:55:06;;;;;;;3.92;2.00;;;33.00;84.40;;;;;;4998212;28;20033;-80
2022/07/18 10:57:40;;;;;;;5.40;2.33;;;33.20;84.10;;;;;;4997632;28;20087;-79
2022/07/18 11:00:11;;;;;;;3.53;2.10;;;33.40;85.80;;;;;;5013424;28;20052;-81
2022/07/18 11:02:39;;;;;;;2.88;1.92;;;33.40;84.50;;;;;;5003491;28;20108;-79
2022/07/18 11:05:23;;;;;;;5.20;1.70;;;33.50;84.80;;;;;;5014109;28;20042;-80
2022/07/18 11:08:01;;;;;;;4.57;2.22;;;33.70;84.70;;;;;;5013870;28;20049;-80
2022/07/18 11:10:54;;;;;;;3.30;2.00;;;33.80;84.10;;;;;;5002066;28;20037;-80
2022/07/18 11:13:28;;;;;;;4.65;2.10;;;34.00;83.20;;;;;;5013343;28;20108;-80
2022/07/18 11:15:56;;;;;;;5.40;2.00;;;34.10;80.80;;;;;;5013585;28;20121;-81
2022/07/18 11:18:22;;;;;;;4.55;2.33;;;34.30;81.50;;;;;;5013380;28;20045;-80
2022/07/18 11:20:48;;;;;;;4.78;1.65;;;34.30;80.90;;;;;;5013878;28;20418;-80
2022/07/18 11:23:21;;;;;;;4.65;1.90;;;34.20;81.60;;;;;;5012660;28;20129;-80
2022/07/18 11:25:54;;;;;;;2.55;1.73;;;34.30;81.40;;;;;;5013544;28;20037;-80
2022/07/18 11:28:20;;;;;;;5.47;2.22;;;34.30;80.50;;;;;;5013505;28;20041;-80
2022/07/18 11:30:58;;;;;;;6.13;2.30;;;34.40;78.70;;;;;;5013460;28;20076;-79
2022/07/18 11:33:27;;;;;;;3.70;2.20;;;34.60;80.10;;;;;;5029583;28;20124;-79
2022/07/18 11:36:01;;;;;;;4.38;1.95;;;34.40;78.30;;;;;;4996932;28;20045;-80
2022/07/18 11:38:27;;;;;;;3.90;2.30;;;34.30;79.10;;;;;;5013499;28;20077;-80
2022/07/18 11:40:52;;;;;;;4.70;2.50;;;34.60;79.70;;;;;;5013250;28;20071;-79
2022/07/18 11:43:23;;;;;;;3.45;2.30;;;34.80;78.90;;;;;;4980342;28;20577;-80
2022/07/18 11:46:00;;;;;;;3.45;1.85;;;35.00;78.60;;;;;;5012869;28;20041;-80
2022/07/18 11:48:26;;;;;;;3.78;2.13;;;34.90;78.80;;;;;;5012889;28;20059;-80
2022/07/18 11:50:51;;;;;;;5.00;2.47;;;34.70;80.00;;;;;;5012939;28;20045;-80
2022/07/18 11:53:17;;;;;;;3.35;2.35;;;34.80;80.40;;;;;;5012832;28;20041;-80
2022/07/18 11:55:43;;;;;;;4.80;2.50;;;34.90;80.40;;;;;;5012650;28;20394;-80
2022/07/18 11:58:11;;;;;;;3.33;2.08;;;35.00;78.90;;;;;;5013268;28;20083;-79
2022/07/18 12:00:37;;;;;;;3.65;2.10;;;35.00;78.50;;;;;;5012322;28;20045;-80
2022/07/18 12:03:15;;;;;;;3.92;2.53;;;34.90;79.40;;;;;;5012845;28;20045;-80
2022/07/18 12:05:50;;;;;;;4.57;2.70;;;35.20;79.10;;;;;;5012755;28;20509;-81
2022/07/18 12:08:34;;;;;;;4.63;2.60;;;35.50;77.80;;;;;;5017843;28;20041;-81
2022/07/18 12:11:15;;;;;;;5.03;2.42;;;35.30;77.00;;;;;;5012846;28;20060;-80
2022/07/18 12:13:56;;;;;;;4.13;2.50;;;35.20;77.70;;;;;;5012694;28;20393;-80
2022/07/18 12:16:27;;;;;;;4.15;2.65;;;35.30;78.30;;;;;;4996093;28;20038;-80
2022/07/18 12:19:26;;;;;;;3.70;2.60;;;35.50;77.10;;;;;;5012023;28;20041;-80
2022/07/18 12:21:57;;;;;;;4.90;3.03;;;35.80;78.40;;;;;;4995852;28;20047;-80
2022/07/18 12:24:39;;;;;;;6.80;2.90;;;35.90;75.20;;;;;;5012410;28;20053;-80
2022/07/18 12:27:24;;;;;;;6.05;2.40;;;36.00;75.90;;;;;;5012612;28;20107;-80
2022/07/18 12:30:13;;;;;;;4.22;2.40;;;36.20;78.20;;;;;;5012654;28;20513;-80
2022/07/18 12:32:45;;;;;;;5.75;2.50;;;36.40;75.60;;;;;;4995645;28;20725;-80
2022/07/18 12:35:12;;;;;;;3.70;2.70;;;36.30;78.10;;;;;;4996304;28;20499;-80
2022/07/18 12:37:38;;;;;;;3.35;2.40;;;35.90;77.10;;;;;;5030094;28;20067;-78
2022/07/18 12:40:09;;;;;;;4.53;2.67;;;35.70;77.80;;;;;;5018387;28;20113;-80
2022/07/18 12:42:40;;;;;;;3.50;2.47;;;35.70;76.20;;;;;;5010193;28;20041;-80
2022/07/18 12:45:08;;;;;;;3.97;2.55;;;35.80;76.90;;;;;;5013159;28;20041;-79
2022/07/18 12:47:34;;;;;;;5.22;2.80;;;35.70;77.50;;;;;;5028147;28;20053;-79
2022/07/18 12:49:59;;;;;;;4.80;2.80;;;35.70;76.80;;;;;;5012881;28;20067;-80
2022/07/18 12:52:26;;;;;;;3.60;2.83;;;35.80;76.10;;;;;;5017957;28;20042;-81
2022/07/18 12:54:51;;;;;;;4.18;2.55;;;35.90;73.30;;;;;;5011936;28;20026;-80
2022/07/18 12:57:18;;;;;;;4.55;2.92;;;35.50;75.20;;;;;;5012370;28;20107;-79